createdAt,value
2023-04-13T00:02:39.996Z,98965.42
2023-04-13T00:07:43.754Z,98965.16
2023-04-13T00:12:48.044Z,98960.80
2023-04-13T00:17:51.724Z,98961.42
2023-04-13T00:22:55.428Z,98955.64
2023-04-13T00:28:03.770Z,98955.23
2023-04-13T00:33:07.601Z,98950.96
2023-04-13T00:38:11.921Z,98950.55
2023-04-13T00:43:16.813Z,98943.40
2023-04-13T00:48:20.993Z,98934.86
2023-04-13T00:53:24.619Z,98929.75
2023-04-13T00:58:28.433Z,98927.31
2023-04-13T01:03:31.817Z,98928.11
2023-04-13T01:08:40.891Z,98927.36
2023-04-13T01:14:24.758Z,98922.66
2023-04-13T01:19:28.168Z,98918.20
2023-04-13T01:24:43.363Z,98921.95
2023-04-13T01:29:48.675Z,98918.13
2023-04-13T01:34:52.231Z,98914.09
2023-04-13T01:39:55.646Z,98904.35
2023-04-13T01:44:59.159Z,98893.89
2023-04-13T01:50:16.093Z,98882.05
2023-04-13T01:55:20.018Z,98877.46
2023-04-13T02:00:23.430Z,98881.58
2023-04-13T02:05:27.721Z,98879.39
2023-04-13T02:10:35.119Z,98880.93
2023-04-13T02:15:38.800Z,98886.70
2023-04-13T02:20:45.300Z,98898.14
2023-04-13T02:25:48.993Z,98905.40
2023-04-13T02:30:52.820Z,98917.83
2023-04-13T02:35:56.231Z,98925.48
2023-04-13T02:41:00.891Z,98934.68
2023-04-13T02:46:04.661Z,98933.31
2023-04-13T02:51:08.434Z,98931.73
2023-04-13T02:56:11.828Z,98928.58
2023-04-13T03:01:15.412Z,98923.99
2023-04-13T03:06:18.982Z,98928.86
2023-04-13T03:11:23.858Z,98941.50
2023-04-13T03:16:28.525Z,98953.95
2023-04-13T03:21:34.736Z,98943.61
2023-04-13T03:26:38.345Z,98941.89
2023-04-13T03:31:41.845Z,98948.62
2023-04-13T03:36:46.197Z,98952.81
2023-04-13T03:41:49.615Z,98956.38
2023-04-13T03:46:53.025Z,98954.19
2023-04-13T03:51:57.673Z,98957.59
2023-04-13T03:57:02.513Z,98963.33
2023-04-13T04:02:05.958Z,98966.50
2023-04-13T04:07:09.447Z,98967.68
2023-04-13T04:12:14.648Z,98971.91
2023-04-13T04:17:18.114Z,98979.59
2023-04-13T04:22:21.525Z,98984.88
2023-04-13T04:27:26.585Z,98986.45
2023-04-13T04:32:29.907Z,98989.27
2023-04-13T04:37:37.850Z,98996.52
2023-04-13T04:42:41.626Z,99000.08
2023-04-13T04:47:45.434Z,99005.16
2023-04-13T04:52:48.992Z,99012.08
2023-04-13T04:57:52.387Z,99012.03
2023-04-13T05:02:56.055Z,99012.15
2023-04-13T05:08:00.575Z,99017.27
2023-04-13T05:13:04.077Z,99019.45
2023-04-13T05:18:07.572Z,99020.00
2023-04-13T05:23:11.043Z,99002.27
2023-04-13T05:28:14.912Z,98988.50
2023-04-13T05:33:18.426Z,98981.10
2023-04-13T05:38:22.963Z,98983.23
2023-04-13T05:43:27.411Z,98989.27
2023-04-13T05:48:34.121Z,98991.07
2023-04-13T05:53:37.810Z,99000.88
2023-04-13T05:58:41.426Z,98997.81
2023-04-13T06:03:45.351Z,99000.63
2023-04-13T06:08:49.787Z,98996.34
2023-04-13T06:13:53.200Z,98987.72
2023-04-13T06:18:56.950Z,98982.76
2023-04-13T06:24:00.646Z,98985.52
2023-04-13T06:29:04.258Z,98993.14
2023-04-13T06:34:07.778Z,98992.49
2023-04-13T06:39:11.912Z,98997.96
2023-04-13T06:44:15.419Z,98996.69
2023-04-13T06:49:18.940Z,99000.97
2023-04-13T06:54:22.452Z,99005.42
2023-04-13T06:59:26.293Z,99004.49
2023-04-13T07:04:32.367Z,98996.34
2023-04-13T07:09:37.416Z,98998.04
2023-04-13T07:14:42.159Z,98999.44
2023-04-13T07:19:48.071Z,98999.48
2023-04-13T07:24:51.639Z,98999.25
2023-04-13T07:29:55.879Z,98997.83
2023-04-13T07:35:02.173Z,98990.95
2023-04-13T07:40:07.056Z,98981.88
2023-04-13T07:45:15.734Z,98973.62
2023-04-13T07:50:19.562Z,98977.63
2023-04-13T07:55:23.285Z,98985.63
2023-04-13T08:00:27.407Z,98994.79
2023-04-13T08:05:30.888Z,98999.20
2023-04-13T08:10:35.970Z,98996.48
2023-04-13T08:15:39.284Z,98995.64
2023-04-13T08:20:42.803Z,98991.50
2023-04-13T08:25:47.545Z,98991.69
2023-04-13T08:30:51.165Z,98986.84
2023-04-13T08:35:54.684Z,98985.54
2023-04-13T08:40:59.232Z,98981.80
2023-04-13T08:46:09.035Z,98987.84
2023-04-13T08:51:14.337Z,98987.05
2023-04-13T08:56:17.852Z,98988.48
2023-04-13T09:01:23.018Z,98991.53
2023-04-13T09:06:35.965Z,98995.89
2023-04-13T09:11:39.661Z,98997.69
2023-04-13T09:16:44.044Z,98996.70
2023-04-13T09:21:48.952Z,98999.66
2023-04-13T09:26:52.778Z,98997.03
2023-04-13T09:31:56.093Z,98993.60
2023-04-13T09:37:01.201Z,98989.65
2023-04-13T09:42:15.919Z,98986.67
2023-04-13T09:47:19.701Z,98987.04
2023-04-13T09:52:24.506Z,98983.80
2023-04-13T09:57:32.708Z,98985.64
2023-04-13T10:02:39.772Z,98981.16
2023-04-13T10:07:47.591Z,98988.67
2023-04-13T10:12:55.441Z,98994.43
2023-04-13T10:18:23.902Z,98987.84
2023-04-13T10:23:32.071Z,98987.40
2023-04-13T10:29:02.727Z,98985.70
2023-04-13T10:34:09.508Z,98983.16
2023-04-13T10:39:28.229Z,98985.24
2023-04-13T10:44:51.564Z,98987.86
2023-04-13T10:49:54.879Z,98991.16
2023-04-13T10:54:58.282Z,98992.34
2023-04-13T11:00:01.910Z,98994.45
2023-04-13T11:05:06.057Z,98990.59
2023-04-13T11:10:10.682Z,98995.31
2023-04-13T11:15:20.907Z,98994.44
2023-04-13T11:20:31.884Z,98997.23
2023-04-13T11:25:35.362Z,98993.94
2023-04-13T11:30:39.281Z,98996.07
2023-04-13T11:35:49.923Z,98992.19
2023-04-13T11:41:12.427Z,98992.83
2023-04-13T11:46:27.332Z,98991.71
2023-04-13T11:51:32.765Z,98995.90
2023-04-13T11:56:36.280Z,98994.29
2023-04-13T12:01:49.382Z,98996.59
2023-04-13T12:06:54.047Z,98993.60
2023-04-13T12:12:20.538Z,98992.59
2023-04-13T12:22:54.838Z,98984.65
2023-04-13T12:28:00.451Z,98986.21
2023-04-13T12:33:04.208Z,98990.33
2023-04-13T12:38:08.513Z,98992.02
2023-04-13T12:43:12.112Z,98985.05
2023-04-13T12:48:15.577Z,98988.40
2023-04-13T12:53:19.061Z,98991.69
2023-04-13T12:58:22.468Z,98992.60
2023-04-13T13:03:26.344Z,98993.77
2023-04-13T13:08:30.902Z,98994.84
2023-04-13T13:13:36.396Z,98993.17
2023-04-13T13:18:49.692Z,98995.69
2023-04-13T13:23:53.708Z,98994.45
2023-04-13T13:28:57.394Z,98999.47
2023-04-13T13:34:01.209Z,99004.12
2023-04-13T13:39:05.951Z,99004.67
2023-04-13T13:44:09.285Z,99004.45
2023-04-13T13:49:12.886Z,99006.86
2023-04-13T13:54:16.311Z,99010.46
2023-04-13T13:59:19.765Z,99012.47
2023-04-13T14:04:23.252Z,99015.13
2023-04-13T14:09:28.077Z,99020.67
2023-04-13T14:14:31.483Z,99022.73
2023-04-13T14:19:34.997Z,99026.81
2023-04-13T14:24:38.514Z,99034.91
2023-04-13T14:29:42.599Z,99031.99
2023-04-13T14:34:46.361Z,99039.61
2023-04-13T14:39:51.591Z,99042.39
2023-04-13T14:44:54.929Z,99047.76
2023-04-13T14:49:58.550Z,99048.27
2023-04-13T14:55:02.046Z,99049.16
2023-04-13T15:00:21.872Z,99058.45
2023-04-13T15:05:25.677Z,99067.37
2023-04-13T15:10:30.536Z,99078.29
2023-04-13T15:15:36.814Z,99076.58
2023-04-13T15:20:40.237Z,99078.09
2023-04-13T15:25:43.661Z,99081.58
2023-04-13T15:30:47.258Z,99080.36
2023-04-13T15:35:52.659Z,99090.84
2023-04-13T15:40:56.274Z,99090.35
2023-04-13T15:46:02.830Z,99107.02
2023-04-13T15:51:06.179Z,99120.44
2023-04-13T15:56:10.294Z,99124.00
2023-04-13T16:01:14.020Z,99125.60
2023-04-13T16:06:17.691Z,99123.45
2023-04-13T16:11:21.217Z,99115.95
2023-04-13T16:16:27.499Z,99109.52
2023-04-13T16:21:31.016Z,99106.31
2023-04-13T16:26:35.352Z,99092.95
2023-04-13T16:31:38.710Z,99092.15
2023-04-13T16:36:42.479Z,99087.36
2023-04-13T16:41:46.117Z,99089.02
2023-04-13T16:46:49.722Z,99089.34
2023-04-13T16:51:53.436Z,99090.43
2023-04-13T16:56:57.278Z,99088.28
2023-04-13T17:02:00.796Z,99087.32
2023-04-13T17:07:04.300Z,99087.25
2023-04-13T17:12:07.805Z,99087.69
2023-04-13T17:17:12.366Z,99093.33
2023-04-13T17:22:15.758Z,99104.34
2023-04-13T17:27:19.171Z,99111.77
2023-04-13T17:32:22.586Z,99119.14
2023-04-13T17:37:26.474Z,99125.23
2023-04-13T17:42:30.032Z,99124.25
2023-04-13T17:47:33.456Z,99124.45
2023-04-13T17:52:37.358Z,99125.58
2023-04-13T17:57:40.986Z,99127.69
2023-04-13T18:02:44.739Z,99129.31
2023-04-13T18:07:48.244Z,99129.59
2023-04-13T18:12:51.738Z,99135.38
2023-04-13T18:17:55.330Z,99148.96
2023-04-13T18:22:59.092Z,99155.28
2023-04-13T18:28:02.602Z,99171.59
2023-04-13T18:33:06.134Z,99179.59
2023-04-13T18:38:10.344Z,99180.66
2023-04-13T18:43:13.764Z,99181.88
2023-04-13T18:48:17.268Z,99187.73
2023-04-13T18:53:22.220Z,99193.04
2023-04-13T18:58:25.940Z,99196.91
2023-04-13T19:03:29.671Z,99200.77
2023-04-13T19:08:33.076Z,99197.77
2023-04-13T19:13:36.584Z,99198.33
2023-04-13T19:18:40.511Z,99198.90
2023-04-13T19:23:43.827Z,99198.04
2023-04-13T19:28:48.467Z,99201.29
2023-04-13T19:33:53.003Z,99209.14
2023-04-13T19:38:56.310Z,99208.33
2023-04-13T19:44:01.270Z,99204.98
2023-04-13T19:49:06.112Z,99207.42
2023-04-13T19:54:09.636Z,99206.47
2023-04-13T19:59:13.356Z,99207.70
2023-04-13T20:04:16.944Z,99207.65
2023-04-13T20:09:21.402Z,99212.19
2023-04-13T20:14:26.112Z,99211.48
2023-04-13T20:19:29.458Z,99215.86
2023-04-13T20:24:32.939Z,99217.70
2023-04-13T20:29:36.896Z,99221.24
2023-04-13T20:34:40.700Z,99222.61
2023-04-13T20:39:53.120Z,99224.14
2023-04-13T20:44:57.757Z,99225.08
2023-04-13T20:50:02.223Z,99227.92
2023-04-13T20:55:05.743Z,99229.31
2023-04-13T21:00:15.439Z,99235.13
2023-04-13T21:05:22.600Z,99233.80
2023-04-13T21:10:26.324Z,99238.60
2023-04-13T21:15:29.845Z,99242.02
2023-04-13T21:20:33.352Z,99241.41
2023-04-13T21:25:37.586Z,99246.50
2023-04-13T21:30:40.998Z,99247.95
2023-04-13T21:35:44.514Z,99243.41
2023-04-13T21:40:48.025Z,99242.59
2023-04-13T21:45:51.582Z,99237.63
2023-04-13T21:50:55.368Z,99234.64
2023-04-13T21:55:58.776Z,99234.61
2023-04-13T22:01:02.229Z,99234.46
2023-04-13T22:06:08.353Z,99238.48
2023-04-13T22:11:12.196Z,99242.70
2023-04-13T22:16:16.704Z,99245.45
2023-04-13T22:21:20.970Z,99252.84
2023-04-13T22:26:25.965Z,99255.04
2023-04-13T22:31:29.483Z,99260.40
2023-04-13T22:36:33.154Z,99264.84
2023-04-13T22:41:36.768Z,99264.48
2023-04-13T22:46:40.300Z,99264.66
2023-04-13T22:51:44.211Z,99268.09
2023-04-13T22:56:47.823Z,99267.06
2023-04-13T23:01:51.611Z,99267.40
2023-04-13T23:06:55.368Z,99272.46
2023-04-13T23:11:59.087Z,99269.63
2023-04-13T23:17:03.013Z,99270.55
2023-04-13T23:22:06.427Z,99272.86
2023-04-13T23:27:09.958Z,99268.69
2023-04-13T23:32:13.733Z,99267.98
2023-04-13T23:37:17.181Z,99266.55
2023-04-13T23:42:20.591Z,99266.25
2023-04-13T23:47:24.142Z,99262.64
2023-04-13T23:52:27.625Z,99265.44
2023-04-13T23:57:34.940Z,99269.41
